Terminal Aerodrome Forecast
Issued by NWS

Home | Current Version | Previous Version | Text Only | Print | Product List | Glossary On
Versions: 1 2 3 4 5 6 7 8 9 10 11 12 13
000
FTAK31 PAFA 230541
TAFAFA
TAF
PAFA 230541Z 2306/2412 00000KT P6SM IC FEW005 SCT120 SCT170
     FM231500 00000KT P6SM SKC
     FM240000 04004KT P6SM SCT080 BKN180=

USA.gov is the U.S. government's official web portal to all federal, state and local government web resources and services.